createdAt,value
2019-05-09T00:00:29.322Z,7.38
2019-05-09T00:02:57.752Z,7.38
2019-05-09T00:05:26.192Z,7.40
2019-05-09T00:07:54.608Z,7.42
2019-05-09T00:10:38.140Z,7.38
2019-05-09T00:12:54.050Z,7.40
2019-05-09T00:15:24.208Z,7.43
2019-05-09T00:17:53.291Z,7.40
2019-05-09T00:20:26.336Z,7.38
2019-05-09T00:22:54.754Z,7.32
2019-05-09T00:25:23.658Z,7.30
2019-05-09T00:27:53.706Z,7.26
2019-05-09T00:30:23.946Z,7.04
2019-05-09T00:32:53.445Z,7.23
2019-05-09T00:35:23.623Z,7.23
2019-05-09T00:38:04.269Z,7.20
2019-05-09T00:40:34.181Z,7.18
2019-05-09T00:43:03.943Z,7.16
2019-05-09T00:45:46.581Z,7.14
2019-05-09T00:48:16.659Z,7.12
2019-05-09T00:50:45.085Z,7.11
2019-05-09T00:53:13.845Z,7.08
2019-05-09T00:55:43.641Z,7.05
2019-05-09T00:58:13.560Z,7.02
2019-05-09T01:00:43.938Z,6.97
2019-05-09T01:03:14.166Z,6.97
2019-05-09T01:05:43.630Z,6.93
2019-05-09T01:08:13.735Z,6.91
2019-05-09T01:10:43.605Z,6.91
2019-05-09T01:13:14.051Z,6.88
2019-05-09T01:15:44.020Z,6.84
2019-05-09T01:18:13.245Z,6.81
2019-05-09T01:20:43.884Z,6.82
2019-05-09T01:23:13.955Z,6.80
2019-05-09T01:25:43.602Z,6.87
2019-05-09T01:28:13.937Z,6.83
2019-05-09T01:30:43.806Z,6.84
2019-05-09T01:33:16.852Z,6.87
2019-05-09T01:35:45.305Z,6.82
2019-05-09T01:38:14.387Z,6.80
2019-05-09T01:40:43.876Z,6.77
2019-05-09T01:43:13.830Z,6.79
2019-05-09T01:45:43.244Z,6.69
2019-05-09T01:48:13.992Z,6.60
2019-05-09T01:50:43.162Z,6.55
2019-05-09T01:53:13.548Z,6.38
2019-05-09T01:56:03.649Z,6.23
2019-05-09T01:58:34.320Z,6.12
2019-05-09T02:01:04.665Z,5.95
2019-05-09T02:03:33.769Z,5.82
2019-05-09T02:06:03.499Z,5.75
2019-05-09T02:08:34.440Z,5.64
2019-05-09T02:11:03.769Z,5.46
2019-05-09T02:13:33.923Z,5.43
2019-05-09T02:16:20.433Z,5.36
2019-05-09T02:18:59.119Z,5.29
2019-05-09T02:21:27.543Z,5.13
2019-05-09T02:23:55.966Z,5.03
2019-05-09T02:26:24.437Z,4.94
2019-05-09T02:28:53.830Z,4.86
2019-05-09T02:31:24.550Z,4.76
2019-05-09T02:33:54.119Z,4.68
2019-05-09T02:36:22.850Z,4.54
2019-05-09T02:38:51.300Z,4.44
2019-05-09T02:41:20.050Z,4.35
2019-05-09T02:43:49.568Z,4.27
2019-05-09T02:46:19.989Z,4.20
2019-05-09T02:48:49.462Z,4.14
2019-05-09T02:51:18.773Z,4.08
2019-05-09T02:53:48.541Z,4.05
2019-05-09T02:56:18.940Z,3.92
2019-05-09T02:58:51.878Z,3.88
2019-05-09T03:01:39.813Z,3.83
2019-05-09T03:04:08.614Z,3.74
2019-05-09T03:06:38.948Z,3.73
2019-05-09T03:09:08.931Z,3.76
2019-05-09T03:11:38.780Z,3.74
2019-05-09T03:14:09.205Z,3.72
2019-05-09T03:16:39.822Z,3.67
2019-05-09T03:19:09.079Z,3.64
2019-05-09T03:21:45.240Z,3.54
2019-05-09T03:24:13.676Z,3.46
2019-05-09T03:26:43.732Z,3.44
2019-05-09T03:29:18.988Z,3.36
2019-05-09T03:31:50.059Z,3.36
2019-05-09T03:34:19.493Z,3.29
2019-05-09T03:36:47.750Z,3.22
2019-05-09T03:39:18.337Z,3.15
2019-05-09T03:41:48.644Z,3.17
2019-05-09T03:44:17.880Z,3.16
2019-05-09T03:46:53.717Z,3.09
2019-05-09T03:49:24.033Z,3.09
2019-05-09T03:51:52.447Z,3.04
2019-05-09T03:54:20.888Z,2.93
2019-05-09T03:56:59.978Z,2.86
2019-05-09T03:59:28.401Z,2.84
2019-05-09T04:01:59.060Z,2.78
2019-05-09T04:04:28.136Z,2.72
2019-05-09T04:06:58.118Z,2.70
2019-05-09T04:09:27.455Z,2.69
2019-05-09T04:11:58.381Z,2.68
2019-05-09T04:14:30.536Z,2.65
2019-05-09T04:16:58.997Z,2.63
2019-05-09T04:19:27.705Z,2.66
2019-05-09T04:21:57.589Z,2.66
2019-05-09T04:24:28.048Z,2.65
2019-05-09T04:26:58.247Z,2.69
2019-05-09T04:29:28.554Z,2.71
2019-05-09T04:31:57.543Z,2.77
2019-05-09T04:34:27.471Z,2.78
2019-05-09T04:36:57.599Z,2.83
2019-05-09T04:39:28.302Z,2.96
2019-05-09T04:42:03.624Z,3.03
2019-05-09T04:44:32.341Z,3.10
2019-05-09T04:47:03.480Z,3.19
2019-05-09T04:49:39.183Z,3.22
2019-05-09T04:52:01.075Z,3.27
2019-05-09T04:54:29.500Z,3.33
2019-05-09T04:56:57.919Z,3.39
2019-05-09T04:59:28.415Z,3.48
2019-05-09T05:02:08.677Z,3.56
2019-05-09T05:04:37.483Z,3.63
2019-05-09T05:07:07.614Z,3.74
2019-05-09T05:09:37.975Z,3.81
2019-05-09T05:12:08.398Z,3.89
2019-05-09T05:14:43.345Z,3.98
2019-05-09T05:17:11.842Z,4.06
2019-05-09T05:19:40.302Z,4.21
2019-05-09T05:22:18.140Z,4.40
2019-05-09T05:24:50.318Z,4.61
2019-05-09T05:27:19.069Z,4.91
2019-05-09T05:29:47.715Z,5.23
2019-05-09T05:32:17.957Z,5.53
2019-05-09T05:35:00.230Z,5.78
2019-05-09T05:37:28.651Z,5.98
2019-05-09T05:39:58.338Z,6.12
2019-05-09T05:42:28.310Z,6.27
2019-05-09T05:44:58.318Z,6.47
2019-05-09T05:47:34.458Z,6.57
2019-05-09T05:50:02.957Z,6.66
2019-05-09T05:52:31.386Z,6.77
2019-05-09T05:54:59.814Z,6.91
2019-05-09T05:57:28.246Z,7.05
2019-05-09T05:59:58.552Z,7.15
2019-05-09T06:02:28.118Z,7.21
2019-05-09T06:04:57.949Z,7.28
2019-05-09T06:07:28.534Z,7.36
2019-05-09T06:09:57.531Z,7.46
2019-05-09T06:12:27.804Z,7.58
2019-05-09T06:14:58.237Z,7.68
2019-05-09T06:17:28.616Z,7.80
2019-05-09T06:19:58.886Z,7.89
2019-05-09T06:22:27.587Z,7.98
2019-05-09T06:24:58.115Z,8.06
2019-05-09T06:27:27.518Z,8.16
2019-05-09T06:29:58.177Z,8.22
2019-05-09T06:32:27.932Z,8.31
2019-05-09T06:34:57.802Z,8.36
2019-05-09T06:37:27.693Z,8.41
2019-05-09T06:39:58.282Z,8.49
2019-05-09T06:42:28.600Z,8.56
2019-05-09T06:45:12.887Z,8.67
2019-05-09T06:47:43.016Z,8.79
2019-05-09T06:50:15.921Z,8.92
2019-05-09T06:52:44.939Z,9.07
2019-05-09T06:55:13.455Z,9.13
2019-05-09T06:57:43.083Z,9.20
2019-05-09T07:00:22.458Z,9.23
2019-05-09T07:02:52.562Z,9.27
2019-05-09T07:05:25.365Z,9.34
2019-05-09T07:07:58.430Z,9.44
2019-05-09T07:10:28.370Z,9.51
2019-05-09T07:12:58.495Z,9.75
2019-05-09T07:15:28.336Z,9.88
2019-05-09T07:17:57.522Z,10.05
2019-05-09T07:20:28.327Z,10.09
2019-05-09T07:22:58.284Z,10.09
2019-05-09T07:25:40.385Z,10.05
2019-05-09T07:28:08.886Z,10.11
2019-05-09T07:30:57.323Z,10.29
2019-05-09T07:33:33.068Z,10.32
2019-05-09T07:36:01.511Z,10.45
2019-05-09T07:38:31.153Z,10.58
2019-05-09T07:41:01.425Z,10.63
2019-05-09T07:43:30.125Z,10.76
2019-05-09T07:46:17.736Z,10.79
2019-05-09T07:48:50.393Z,10.92
2019-05-09T07:51:18.933Z,10.96
2019-05-09T07:53:48.232Z,11.18
2019-05-09T07:56:18.678Z,11.24
2019-05-09T07:58:47.758Z,11.42
2019-05-09T08:01:18.820Z,11.51
2019-05-09T08:03:49.018Z,11.63
2019-05-09T08:06:18.345Z,11.70
2019-05-09T08:08:47.746Z,11.76
2019-05-09T08:11:17.968Z,11.76
2019-05-09T08:13:48.645Z,12.10
2019-05-09T08:16:18.633Z,12.51
2019-05-09T08:18:48.311Z,13.10
2019-05-09T08:21:18.115Z,13.28
2019-05-09T08:23:48.545Z,13.21
2019-05-09T08:26:18.845Z,13.26
2019-05-09T08:28:48.015Z,13.17
2019-05-09T08:31:17.876Z,13.15
2019-05-09T08:33:48.504Z,13.27
2019-05-09T08:36:18.047Z,13.40
2019-05-09T08:38:47.728Z,13.24
2019-05-09T08:41:19.315Z,13.17
2019-05-09T08:43:48.454Z,13.22
2019-05-09T08:46:18.136Z,13.21
2019-05-09T08:48:48.514Z,13.26
2019-05-09T08:51:21.661Z,13.32
2019-05-09T08:53:50.097Z,13.47
2019-05-09T08:56:18.579Z,13.90
2019-05-09T08:58:48.504Z,14.00
2019-05-09T09:01:27.103Z,14.31
2019-05-09T09:03:48.462Z,14.42
2019-05-09T09:06:18.364Z,14.50
2019-05-09T09:08:51.354Z,14.53
2019-05-09T09:11:19.872Z,14.58
2019-05-09T09:13:48.479Z,14.38
2019-05-09T09:16:21.594Z,14.34
2019-05-09T09:18:48.066Z,14.50
2019-05-09T09:21:18.342Z,14.38
2019-05-09T09:23:50.658Z,14.54
2019-05-09T09:26:19.150Z,14.51
2019-05-09T09:28:48.457Z,14.67
2019-05-09T09:31:18.047Z,14.37
2019-05-09T09:33:47.989Z,14.24
2019-05-09T09:36:17.968Z,14.13
2019-05-09T09:38:48.085Z,13.97
2019-05-09T09:41:18.377Z,13.79
2019-05-09T09:43:49.079Z,13.71
2019-05-09T09:46:20.826Z,13.64
2019-05-09T09:48:50.639Z,13.52
2019-05-09T09:51:19.250Z,13.43
2019-05-09T09:53:49.469Z,13.49
2019-05-09T09:56:22.085Z,13.33
2019-05-09T09:58:49.978Z,13.27
2019-05-09T10:01:29.071Z,13.32
2019-05-09T10:04:23.717Z,13.17
2019-05-09T10:06:48.677Z,12.95
2019-05-09T10:09:17.648Z,12.63
2019-05-09T10:11:49.953Z,12.58
2019-05-09T10:14:19.823Z,12.24
2019-05-09T10:16:49.984Z,12.15
2019-05-09T10:19:38.350Z,11.51
2019-05-09T10:22:11.689Z,11.04
2019-05-09T10:24:40.177Z,10.96
2019-05-09T10:27:10.270Z,11.17
2019-05-09T10:29:39.119Z,11.12
2019-05-09T10:32:09.386Z,11.54
2019-05-09T10:34:37.943Z,11.59
2019-05-09T10:37:07.715Z,11.74
2019-05-09T10:39:38.070Z,12.02
2019-05-09T10:42:08.380Z,12.25
2019-05-09T10:47:30.146Z,12.03
2019-05-09T10:49:58.557Z,12.33
2019-05-09T10:52:28.351Z,12.53
2019-05-09T10:54:58.002Z,12.59
2019-05-09T10:57:31.428Z,12.84
2019-05-09T10:59:57.993Z,12.92
2019-05-09T11:02:27.937Z,13.24
2019-05-09T11:04:57.592Z,13.53
2019-05-09T11:07:28.719Z,13.97
2019-05-09T11:09:58.744Z,14.43
2019-05-09T11:12:27.566Z,14.66
2019-05-09T11:14:59.154Z,14.59
2019-05-09T11:17:28.593Z,14.58
2019-05-09T11:19:58.747Z,14.57
2019-05-09T11:22:29.277Z,14.85
2019-05-09T11:24:58.083Z,14.83
2019-05-09T11:27:28.875Z,14.78
2019-05-09T11:29:57.864Z,14.87
2019-05-09T11:32:27.718Z,14.47
2019-05-09T11:34:57.651Z,14.44
2019-05-09T11:37:26.232Z,14.54
2019-05-09T11:39:54.607Z,14.50
2019-05-09T11:42:22.998Z,14.59
2019-05-09T11:44:51.633Z,14.74
2019-05-09T11:47:32.391Z,14.81
2019-05-09T11:49:50.294Z,14.85
2019-05-09T11:52:18.928Z,14.66
2019-05-09T11:54:48.268Z,14.92
2019-05-09T11:57:19.092Z,14.91
2019-05-09T11:59:48.092Z,15.12
2019-05-09T12:02:18.086Z,15.23
2019-05-09T12:04:48.689Z,15.19
2019-05-09T12:07:17.877Z,15.13
2019-05-09T12:09:48.842Z,14.87
2019-05-09T12:12:16.672Z,15.06
2019-05-09T12:14:45.064Z,15.40
2019-05-09T12:17:13.457Z,15.54
2019-05-09T12:19:42.159Z,15.70
2019-05-09T12:22:10.871Z,15.77
2019-05-09T12:24:39.543Z,16.15
2019-05-09T12:27:08.788Z,16.29
2019-05-09T12:29:38.704Z,16.15
2019-05-09T12:32:08.860Z,15.55
2019-05-09T12:34:37.755Z,15.46
2019-05-09T12:37:06.142Z,15.53
2019-05-09T12:39:37.830Z,15.54
2019-05-09T12:42:08.691Z,15.68
2019-05-09T12:44:36.445Z,15.81
2019-05-09T12:47:04.836Z,15.41
2019-05-09T12:49:33.233Z,15.21
2019-05-09T12:52:01.688Z,15.05
2019-05-09T12:54:30.531Z,15.26
2019-05-09T12:56:59.345Z,15.42
2019-05-09T12:59:28.638Z,15.43
2019-05-09T13:01:58.176Z,15.82
2019-05-09T13:04:28.175Z,15.89
2019-05-09T13:06:58.703Z,15.91
2019-05-09T13:09:28.587Z,15.89
2019-05-09T13:11:57.895Z,15.48
2019-05-09T13:14:28.621Z,14.91
2019-05-09T13:16:58.638Z,14.16
2019-05-09T13:19:34.675Z,13.82
2019-05-09T13:22:03.056Z,13.32
2019-05-09T13:24:31.449Z,13.09
2019-05-09T13:27:00.141Z,12.95
2019-05-09T13:29:29.650Z,12.68
2019-05-09T13:31:58.145Z,13.26
2019-05-09T13:34:28.369Z,13.52
2019-05-09T13:36:59.052Z,13.66
2019-05-09T13:39:27.954Z,14.20
2019-05-09T13:41:58.298Z,14.95
2019-05-09T13:44:27.751Z,15.24
2019-05-09T13:46:58.449Z,15.36
2019-05-09T13:49:28.587Z,15.38
2019-05-09T13:52:03.520Z,15.56
2019-05-09T13:54:28.558Z,15.71
2019-05-09T13:57:00.907Z,16.23
2019-05-09T13:59:30.018Z,16.81
2019-05-09T14:01:58.105Z,17.07
2019-05-09T14:04:28.595Z,17.06
2019-05-09T14:06:56.947Z,16.67
2019-05-09T14:09:25.359Z,17.07
2019-05-09T14:11:53.776Z,16.86
2019-05-09T14:14:22.149Z,16.98
2019-05-09T14:16:50.875Z,17.37
2019-05-09T14:19:31.219Z,17.61
2019-05-09T14:21:49.790Z,17.38
2019-05-09T14:24:19.270Z,17.45
2019-05-09T14:26:48.061Z,17.40
2019-05-09T14:29:20.492Z,16.91
2019-05-09T14:31:46.844Z,17.19
2019-05-09T14:34:15.584Z,17.22
2019-05-09T14:36:45.641Z,17.24
2019-05-09T14:39:14.697Z,16.75
2019-05-09T14:41:43.084Z,16.45
2019-05-09T14:44:11.761Z,15.99
2019-05-09T14:46:40.511Z,15.69
2019-05-09T14:49:09.023Z,15.61
2019-05-09T14:51:38.004Z,15.62
2019-05-09T14:54:08.267Z,15.69
2019-05-09T14:56:41.744Z,15.98
2019-05-09T14:59:09.768Z,15.81
2019-05-09T15:01:39.051Z,15.35
2019-05-09T15:04:09.023Z,15.47
2019-05-09T15:06:37.575Z,15.50
2019-05-09T15:09:08.364Z,15.38
2019-05-09T15:11:39.518Z,15.36
2019-05-09T15:14:08.320Z,15.59
2019-05-09T15:16:39.151Z,15.55
2019-05-09T15:19:08.359Z,15.78
2019-05-09T15:21:38.255Z,15.74
2019-05-09T15:24:09.232Z,15.91
2019-05-09T15:26:37.871Z,15.79
2019-05-09T15:29:07.985Z,15.10
2019-05-09T15:31:39.220Z,15.08
2019-05-09T15:34:09.831Z,15.22
2019-05-09T15:36:37.986Z,15.49
2019-05-09T15:39:08.231Z,15.66
2019-05-09T15:41:38.468Z,15.74
2019-05-09T15:44:08.348Z,15.73
2019-05-09T15:46:38.585Z,15.84
2019-05-09T15:49:07.665Z,15.56
2019-05-09T15:51:38.464Z,15.24
2019-05-09T15:54:08.330Z,14.99
2019-05-09T15:56:38.414Z,15.17
2019-05-09T15:59:06.945Z,14.95
2019-05-09T16:01:35.500Z,14.80
2019-05-09T16:04:03.972Z,14.63
2019-05-09T16:06:33.623Z,14.51
2019-05-09T16:09:02.004Z,14.32
2019-05-09T16:11:30.391Z,13.94
2019-05-09T16:13:58.768Z,14.18
2019-05-09T16:16:28.707Z,14.19
2019-05-09T16:18:58.286Z,14.31
2019-05-09T16:21:27.778Z,14.41
2019-05-09T16:23:59.067Z,14.52
2019-05-09T16:26:28.941Z,14.66
2019-05-09T16:28:58.180Z,14.39
2019-05-09T16:31:27.887Z,14.13
2019-05-09T16:33:58.106Z,14.36
2019-05-09T16:36:28.164Z,14.36
2019-05-09T16:38:58.390Z,14.40
2019-05-09T16:41:27.995Z,14.73
2019-05-09T16:43:58.368Z,14.55
2019-05-09T16:46:28.623Z,14.78
2019-05-09T16:48:58.119Z,14.56
2019-05-09T16:51:28.549Z,14.23
2019-05-09T16:53:58.378Z,13.86
2019-05-09T16:56:28.706Z,13.53
2019-05-09T16:58:57.855Z,13.52
2019-05-09T17:01:28.370Z,13.77
2019-05-09T17:03:57.490Z,13.92
2019-05-09T17:06:27.504Z,13.97
2019-05-09T17:08:58.392Z,14.14
2019-05-09T17:11:27.802Z,14.18
2019-05-09T17:13:58.336Z,13.61
2019-05-09T17:16:28.421Z,13.38
2019-05-09T17:18:58.224Z,13.36
2019-05-09T17:21:48.117Z,13.21
2019-05-09T17:24:18.523Z,13.10
2019-05-09T17:26:48.887Z,13.09
2019-05-09T17:29:18.486Z,12.97
2019-05-09T17:31:48.837Z,12.86
2019-05-09T17:34:18.101Z,12.54
2019-05-09T17:36:47.151Z,12.44
2019-05-09T17:39:15.588Z,12.30
2019-05-09T17:41:44.260Z,12.34
2019-05-09T17:44:12.638Z,12.23
2019-05-09T17:46:41.312Z,12.13
2019-05-09T17:49:10.098Z,12.05
2019-05-09T17:51:38.493Z,12.01
2019-05-09T17:54:08.096Z,12.04
2019-05-09T17:56:37.876Z,11.97
2019-05-09T17:59:08.565Z,11.93
2019-05-09T18:01:37.131Z,11.89
2019-05-09T18:04:06.760Z,11.85
2019-05-09T18:06:37.962Z,11.80
2019-05-09T18:09:08.469Z,11.74
2019-05-09T18:11:37.818Z,11.71
2019-05-09T18:14:08.161Z,11.66
2019-05-09T18:16:38.990Z,11.59
2019-05-09T18:19:08.427Z,11.60
2019-05-09T18:21:50.406Z,11.52
2019-05-09T18:24:08.835Z,11.51
2019-05-09T18:26:38.206Z,11.48
2019-05-09T18:29:06.933Z,11.45
2019-05-09T18:31:39.648Z,11.46
2019-05-09T18:34:08.035Z,11.49
2019-05-09T18:36:38.184Z,11.49
2019-05-09T18:39:07.729Z,11.53
2019-05-09T18:41:36.388Z,11.49
2019-05-09T18:44:07.342Z,11.34
2019-05-09T18:46:35.407Z,11.04
2019-05-09T18:49:03.789Z,10.78
2019-05-09T18:51:32.460Z,10.44
2019-05-09T18:54:00.859Z,10.27
2019-05-09T18:56:29.231Z,10.06
2019-05-09T18:58:57.908Z,9.97
2019-05-09T19:01:26.352Z,9.91
2019-05-09T19:03:54.735Z,9.90
2019-05-09T19:06:23.110Z,9.82
2019-05-09T19:08:51.544Z,9.81
2019-05-09T19:11:19.905Z,9.78
2019-05-09T19:13:48.549Z,9.74
2019-05-09T19:16:24.648Z,9.72
2019-05-09T19:18:54.970Z,9.71
2019-05-09T19:21:24.991Z,9.75
2019-05-09T19:23:53.406Z,9.71
2019-05-09T19:26:36.808Z,9.66
2019-05-09T19:29:07.014Z,9.59
2019-05-09T19:31:36.017Z,9.61
2019-05-09T19:34:04.639Z,9.59
2019-05-09T19:36:33.015Z,9.64
2019-05-09T19:39:01.417Z,9.60
2019-05-09T19:41:30.060Z,9.57
2019-05-09T19:43:58.449Z,9.60
2019-05-09T19:46:27.114Z,9.58
2019-05-09T19:48:55.502Z,9.55
2019-05-09T19:51:24.177Z,9.51
2019-05-09T19:53:52.562Z,9.52
2019-05-09T19:56:20.935Z,9.47
2019-05-09T19:58:49.640Z,9.44
2019-05-09T20:01:18.082Z,9.45
2019-05-09T20:03:46.795Z,9.41
2019-05-09T20:06:16.639Z,9.42
2019-05-09T20:08:45.161Z,9.44
2019-05-09T20:11:20.638Z,9.49
2019-05-09T20:13:59.479Z,9.44
2019-05-09T20:16:29.647Z,9.41
2019-05-09T20:18:58.031Z,9.31
2019-05-09T20:21:26.426Z,9.26
2019-05-09T20:23:54.818Z,9.29
2019-05-09T20:26:23.268Z,9.29
2019-05-09T20:28:51.883Z,9.24
2019-05-09T20:31:20.591Z,9.21
2019-05-09T20:33:49.030Z,9.16
2019-05-09T20:36:17.398Z,9.13
2019-05-09T20:38:46.225Z,9.12
2019-05-09T20:41:15.114Z,9.13
2019-05-09T20:43:43.696Z,9.12
2019-05-09T20:46:12.590Z,9.14
2019-05-09T20:48:41.158Z,9.17
2019-05-09T20:51:09.721Z,9.16
2019-05-09T20:53:38.272Z,9.21
2019-05-09T20:56:06.842Z,9.23
2019-05-09T20:58:35.407Z,9.15
2019-05-09T21:01:03.983Z,9.15
2019-05-09T21:03:32.535Z,9.15
2019-05-09T21:06:01.110Z,9.15
2019-05-09T21:08:29.948Z,9.13
2019-05-09T21:10:58.521Z,9.15
2019-05-09T21:13:27.104Z,9.19
2019-05-09T21:15:56.023Z,9.23
2019-05-09T21:18:24.668Z,9.21
2019-05-09T21:20:53.588Z,9.17
2019-05-09T21:23:24.946Z,9.22
2019-05-09T21:25:52.444Z,9.17
2019-05-09T21:28:21.298Z,9.21
2019-05-09T21:30:50.313Z,9.20
2019-05-09T21:33:19.171Z,9.20
2019-05-09T21:35:47.853Z,9.11
2019-05-09T21:38:16.542Z,9.16
2019-05-09T21:40:45.648Z,9.14
2019-05-09T21:43:14.031Z,9.07
2019-05-09T21:45:43.058Z,9.02
2019-05-09T21:48:11.424Z,9.05
2019-05-09T21:50:39.814Z,8.99
2019-05-09T21:53:08.190Z,9.02
2019-05-09T21:55:36.843Z,9.08
2019-05-09T21:58:05.510Z,9.11
2019-05-09T22:00:38.303Z,9.16
2019-05-09T22:03:07.514Z,9.16
2019-05-09T22:05:36.740Z,9.17
2019-05-09T22:08:05.351Z,9.22
2019-05-09T22:10:34.323Z,9.24
2019-05-09T22:13:02.982Z,9.31
2019-05-09T22:15:31.754Z,9.32
2019-05-09T22:18:00.141Z,9.29
2019-05-09T22:20:28.823Z,9.29
2019-05-09T22:22:57.213Z,9.28
2019-05-09T22:25:25.588Z,9.24
2019-05-09T22:27:54.440Z,9.16
2019-05-09T22:30:23.293Z,9.29
2019-05-09T22:32:51.683Z,9.31
2019-05-09T22:35:20.119Z,9.36
2019-05-09T22:37:48.501Z,9.35
2019-05-09T22:40:17.711Z,9.31
2019-05-09T22:42:46.081Z,9.34
2019-05-09T22:45:15.195Z,9.36
2019-05-09T22:47:43.588Z,9.35
2019-05-09T22:50:12.495Z,9.33
2019-05-09T22:52:40.882Z,9.35
2019-05-09T22:55:09.525Z,9.37
2019-05-09T22:57:37.906Z,9.38
2019-05-09T23:00:07.735Z,9.38
2019-05-09T23:02:36.190Z,9.34
2019-05-09T23:05:05.553Z,9.33
2019-05-09T23:07:34.277Z,9.36
2019-05-09T23:10:02.967Z,9.38
2019-05-09T23:12:31.353Z,9.43
2019-05-09T23:14:59.722Z,9.47
2019-05-09T23:17:28.124Z,9.42
2019-05-09T23:19:56.497Z,9.40
2019-05-09T23:22:26.527Z,9.39
2019-05-09T23:24:54.898Z,9.38
2019-05-09T23:27:23.277Z,9.35
2019-05-09T23:29:51.655Z,9.28
2019-05-09T23:32:33.734Z,9.27
2019-05-09T23:35:02.283Z,9.26
2019-05-09T23:37:31.042Z,9.18
2019-05-09T23:39:59.415Z,9.13
2019-05-09T23:42:28.177Z,9.08
2019-05-09T23:44:56.872Z,9.09
2019-05-09T23:47:25.250Z,9.09
2019-05-09T23:49:53.932Z,9.06
2019-05-09T23:52:22.641Z,9.03
2019-05-09T23:55:08.885Z,9.01
2019-05-09T23:57:55.122Z,8.99
